Time;durP1;ratioP1;P1;durP2;ratioP2;P2;SDS_P1;SDS_P2;PMS_P1;PMS_P2;Temp;Humidity;BMP_temperature;BMP_pressure;BME280_temperature;BME280_humidity;BME280_pressure;Samples;Min_cycle;Max_cycle;Signal;HPM_P1;HPM_P2
2023/06/23 00:00:09;;;;;;;;;;;25.00;65.30;;;;;;6243304;22;19915;-89
2023/06/23 00:02:35;;;;;;;;;;;24.90;65.10;;;;;;6244489;22;19915;-90
2023/06/23 00:05:04;;;;;;;;;;;24.90;65.40;;;;;;6242573;22;19915;-85
2023/06/23 00:07:30;;;;;;;;;;;24.90;64.80;;;;;;6243102;22;19915;-83
2023/06/23 00:09:56;;;;;;;;;;;24.90;65.50;;;;;;6243026;22;20362;-83
2023/06/23 00:12:24;;;;;;;;;;;24.90;65.40;;;;;;6216145;22;19922;-86
2023/06/23 00:14:50;;;;;;;;;;;24.80;65.20;;;;;;6243997;22;19915;-88
2023/06/23 00:17:16;;;;;;;;;;;24.80;65.00;;;;;;6242489;22;20313;-89
2023/06/23 00:19:42;;;;;;;;;;;24.70;65.00;;;;;;6218051;22;19922;-88
2023/06/23 00:22:07;;;;;;;;;;;24.70;65.10;;;;;;6216905;22;19938;-85
2023/06/23 00:24:33;;;;;;;;;;;24.70;65.00;;;;;;6217485;22;19919;-89
2023/06/23 00:27:00;;;;;;;;;;;24.60;64.90;;;;;;6242287;22;19911;-83
2023/06/23 00:29:26;;;;;;;;;;;24.50;64.90;;;;;;6242709;22;20327;-87
2023/06/23 00:31:52;;;;;;;;;;;24.40;65.00;;;;;;6216878;22;19922;-86
2023/06/23 00:34:18;;;;;;;;;;;24.30;65.20;;;;;;6244344;22;19947;-89
2023/06/23 00:36:44;;;;;;;;;;;24.30;65.10;;;;;;6224627;22;19978;-86
2023/06/23 00:39:10;;;;;;;;;;;24.30;65.10;;;;;;6250530;22;19949;-90
2023/06/23 00:41:36;;;;;;;;;;;24.30;65.20;;;;;;6224623;22;19911;-83
2023/06/23 00:44:02;;;;;;;;;;;24.30;65.50;;;;;;6250785;22;19976;-89
2023/06/23 00:46:28;;;;;;;;;;;24.30;65.70;;;;;;6250213;22;19917;-88
2023/06/23 00:48:55;;;;;;;;;;;24.20;65.40;;;;;;6250445;22;19911;-86
2023/06/23 00:54:35;;;;;;;;;;;24.20;65.50;;;;;;6255585;22;19911;-89
2023/06/23 00:57:20;;;;;;;;;;;24.20;65.70;;;;;;6250118;22;19990;-85
2023/06/23 00:59:46;;;;;;;;;;;24.20;65.70;;;;;;6250628;22;20410;-85
2023/06/23 01:02:12;;;;;;;;;;;24.20;65.80;;;;;;6224795;22;19942;-88
2023/06/23 01:04:38;;;;;;;;;;;24.20;66.10;;;;;;6250628;22;19942;-87
2023/06/23 01:07:26;;;;;;;;;;;24.10;66.00;;;;;;6225062;22;19943;-85
2023/06/23 01:10:12;;;;;;;;;;;24.10;66.00;;;;;;6250746;22;19954;-84
2023/06/23 01:13:03;;;;;;;;;;;24.10;66.00;;;;;;6277455;22;19915;-84
2023/06/23 01:16:09;;;;;;;;;;;24.10;66.10;;;;;;6249957;22;19934;-87
2023/06/23 01:19:12;;;;;;;;;;;24.00;66.20;;;;;;6277168;22;20313;-85
2023/06/23 01:21:52;;;;;;;;;;;24.00;66.30;;;;;;6249891;22;19911;-84
2023/06/23 01:24:26;;;;;;;;;;;24.00;66.10;;;;;;6250598;22;19966;-84
2023/06/23 01:27:29;;;;;;;;;;;24.00;66.30;;;;;;6250178;22;19911;-87
2023/06/23 01:29:56;;;;;;;;;;;24.00;66.10;;;;;;6277397;22;19911;-84
2023/06/23 01:32:42;;;;;;;;;;;23.90;66.30;;;;;;6277099;22;19922;-88
2023/06/23 01:35:14;;;;;;;;;;;23.90;66.40;;;;;;6249942;22;19994;-84
2023/06/23 01:37:42;;;;;;;;;;;23.90;66.30;;;;;;6250491;22;19981;-88
2023/06/23 01:40:13;;;;;;;;;;;23.80;66.40;;;;;;6250235;22;20007;-85
2023/06/23 01:42:43;;;;;;;;;;;23.80;66.40;;;;;;6252214;22;19911;-84
2023/06/23 01:45:10;;;;;;;;;;;23.80;66.40;;;;;;6251760;22;19907;-84
2023/06/23 01:47:38;;;;;;;;;;;23.80;66.50;;;;;;6251785;22;19980;-84
2023/06/23 01:50:23;;;;;;;;;;;23.80;66.80;;;;;;6251865;22;19907;-88
2023/06/23 01:52:50;;;;;;;;;;;23.70;67.00;;;;;;6251978;22;19911;-84
2023/06/23 01:55:16;;;;;;;;;;;23.70;67.10;;;;;;6251826;22;19911;-87
2023/06/23 01:57:43;;;;;;;;;;;23.60;66.50;;;;;;6226830;22;19934;-84
2023/06/23 02:00:13;;;;;;;;;;;23.70;67.30;;;;;;6251545;22;19989;-88
2023/06/23 02:02:40;;;;;;;;;;;23.60;67.00;;;;;;6252645;22;20344;-88
2023/06/23 02:05:07;;;;;;;;;;;23.60;67.10;;;;;;6226263;22;19907;-84
2023/06/23 02:07:34;;;;;;;;;;;23.60;67.10;;;;;;6252262;22;20150;-88
2023/06/23 02:10:01;;;;;;;;;;;23.60;67.10;;;;;;6251835;22;19933;-84
2023/06/23 02:12:27;;;;;;;;;;;23.60;67.30;;;;;;6251249;22;20002;-84
2023/06/23 02:14:53;;;;;;;;;;;23.60;67.50;;;;;;6226686;22;19907;-85
2023/06/23 02:17:21;;;;;;;;;;;23.50;67.50;;;;;;6251392;22;20240;-84
2023/06/23 02:19:49;;;;;;;;;;;23.50;67.00;;;;;;6226550;22;19978;-87
2023/06/23 02:22:18;;;;;;;;;;;23.50;67.60;;;;;;6251575;22;19911;-83
2023/06/23 02:24:46;;;;;;;;;;;23.50;67.60;;;;;;6251838;22;20321;-84
2023/06/23 02:27:12;;;;;;;;;;;23.50;67.50;;;;;;6251707;22;19915;-88
2023/06/23 02:29:40;;;;;;;;;;;23.40;67.40;;;;;;6251872;22;19957;-86
2023/06/23 02:32:07;;;;;;;;;;;23.40;67.40;;;;;;6251250;22;19917;-84
2023/06/23 02:34:35;;;;;;;;;;;23.40;67.30;;;;;;6226367;22;20291;-88
2023/06/23 02:37:39;;;;;;;;;;;23.40;67.40;;;;;;6251574;22;19911;-88
2023/06/23 02:40:16;;;;;;;;;;;23.30;67.60;;;;;;6250989;22;19915;-83
2023/06/23 02:42:50;;;;;;;;;;;23.30;67.50;;;;;;6253037;22;19923;-88
2023/06/23 02:45:18;;;;;;;;;;;23.30;67.40;;;;;;6251025;22;20248;-84
2023/06/23 02:47:46;;;;;;;;;;;23.20;67.30;;;;;;6251255;22;20320;-83
2023/06/23 02:50:13;;;;;;;;;;;23.20;67.20;;;;;;6251010;22;19918;-87
2023/06/23 02:52:44;;;;;;;;;;;23.10;67.10;;;;;;6225841;22;19939;-86
2023/06/23 02:55:11;;;;;;;;;;;23.00;66.90;;;;;;6251319;22;19990;-87
2023/06/23 02:57:38;;;;;;;;;;;23.00;67.00;;;;;;6251468;22;19911;-83
2023/06/23 03:00:11;;;;;;;;;;;22.90;67.10;;;;;;6251152;22;19907;-87
2023/06/23 03:02:40;;;;;;;;;;;22.90;67.10;;;;;;6252918;22;19911;-81
2023/06/23 03:05:06;;;;;;;;;;;22.70;67.00;;;;;;6250967;22;19907;-86
2023/06/23 03:07:33;;;;;;;;;;;22.70;67.20;;;;;;6251117;22;19915;-87
2023/06/23 03:09:59;;;;;;;;;;;22.60;67.10;;;;;;6251339;22;19914;-83
2023/06/23 03:12:25;;;;;;;;;;;22.60;67.10;;;;;;6225124;22;19989;-86
2023/06/23 03:14:53;;;;;;;;;;;22.60;67.20;;;;;;6225918;22;19915;-85
2023/06/23 03:17:32;;;;;;;;;;;;;;;;;;;;;
2023/06/23 03:20:27;;;;;;;;;;;22.50;67.20;;;;;;6249322;22;20392;-83
2023/06/23 03:23:13;;;;;;;;;;;22.40;67.00;;;;;;6251015;22;19919;-85
2023/06/23 03:26:16;;;;;;;;;;;22.40;66.90;;;;;;6250597;22;19933;-82
2023/06/23 03:28:43;;;;;;;;;;;22.50;66.80;;;;;;6277656;22;19915;-86
2023/06/23 03:31:17;;;;;;;;;;;22.50;66.90;;;;;;6250558;22;19926;-83
2023/06/23 03:33:44;;;;;;;;;;;22.40;66.90;;;;;;6277933;22;19918;-84
2023/06/23 03:36:11;;;;;;;;;;;22.40;66.70;;;;;;6225073;22;19918;-82
2023/06/23 03:38:57;;;;;;;;;;;22.40;67.10;;;;;;6250919;22;19911;-83
2023/06/23 03:41:27;;;;;;;;;;;22.40;67.10;;;;;;6250570;22;19945;-86
2023/06/23 03:43:56;;;;;;;;;;;22.40;67.00;;;;;;6250516;22;19911;-83
2023/06/23 03:46:26;;;;;;;;;;;22.50;66.90;;;;;;6250155;22;19915;-86
2023/06/23 03:48:54;;;;;;;;;;;22.50;66.90;;;;;;6250713;22;20317;-82
2023/06/23 03:51:21;;;;;;;;;;;22.50;66.70;;;;;;6250171;22;19960;-82
2023/06/23 03:53:48;;;;;;;;;;;22.50;66.70;;;;;;6225218;22;19937;-82
2023/06/23 03:56:15;;;;;;;;;;;22.60;66.60;;;;;;6250416;22;19961;-83
2023/06/23 03:58:42;;;;;;;;;;;22.60;66.60;;;;;;6251040;22;19915;-86
2023/06/23 04:01:09;;;;;;;;;;;22.60;66.60;;;;;;6250227;22;19918;-87
2023/06/23 04:03:37;;;;;;;;;;;22.60;66.60;;;;;;6250467;22;19911;-87
2023/06/23 04:06:05;;;;;;;;;;;22.60;66.60;;;;;;6250140;22;19911;-82
2023/06/23 04:08:32;;;;;;;;;;;22.70;66.80;;;;;;6250520;22;20218;-82
2023/06/23 04:10:58;;;;;;;;;;;22.70;66.70;;;;;;6250330;22;19915;-88
2023/06/23 04:13:26;;;;;;;;;;;22.70;66.70;;;;;;6250552;22;19999;-83
2023/06/23 04:15:53;;;;;;;;;;;22.70;66.60;;;;;;6250173;22;19946;-86
2023/06/23 04:18:20;;;;;;;;;;;22.70;66.60;;;;;;6225144;22;19934;-82
2023/06/23 04:20:46;;;;;;;;;;;22.70;66.80;;;;;;6249961;22;19986;-83
2023/06/23 04:23:13;;;;;;;;;;;22.70;66.20;;;;;;6250628;22;19962;-88
2023/06/23 04:25:39;;;;;;;;;;;22.80;67.00;;;;;;6249974;22;19960;-82
2023/06/23 04:28:07;;;;;;;;;;;22.80;66.90;;;;;;6250534;22;19912;-82
2023/06/23 04:30:35;;;;;;;;;;;22.80;67.00;;;;;;6249877;22;19915;-88
2023/06/23 04:33:01;;;;;;;;;;;22.80;66.80;;;;;;6225204;22;19934;-87
2023/06/23 04:35:27;;;;;;;;;;;22.80;66.30;;;;;;6249995;22;20244;-84
2023/06/23 04:38:17;;;;;;;;;;;22.90;66.30;;;;;;6277341;22;19917;-81
2023/06/23 04:41:09;;;;;;;;;;;22.90;66.80;;;;;;6249510;22;19942;-87
2023/06/23 04:43:39;;;;;;;;;;;22.90;67.10;;;;;;6250336;22;19912;-84
2023/06/23 04:46:23;;;;;;;;;;;22.80;67.30;;;;;;6250204;22;20388;-87
2023/06/23 04:49:08;;;;;;;;;;;22.80;67.70;;;;;;6250432;22;19934;-84
2023/06/23 04:51:53;;;;;;;;;;;22.80;67.40;;;;;;6249906;22;19911;-85
2023/06/23 04:54:41;;;;;;;;;;;22.90;67.40;;;;;;6250580;22;19957;-87
2023/06/23 04:57:27;;;;;;;;;;;22.90;67.80;;;;;;6250701;22;19911;-83
2023/06/23 04:59:55;;;;;;;;;;;23.00;67.60;;;;;;6250668;22;19911;-84
2023/06/23 05:02:25;;;;;;;;;;;22.90;68.00;;;;;;6250072;22;20016;-84
2023/06/23 05:04:52;;;;;;;;;;;23.00;68.00;;;;;;6250824;22;19912;-90
2023/06/23 05:07:18;;;;;;;;;;;23.10;67.90;;;;;;6250512;22;19934;-85
2023/06/23 05:09:48;;;;;;;;;;;23.10;67.90;;;;;;6250585;22;20260;-84
2023/06/23 05:12:15;;;;;;;;;;;23.10;67.80;;;;;;6250364;22;19998;-84
2023/06/23 05:14:42;;;;;;;;;;;23.20;67.50;;;;;;6250422;22;20257;-84
2023/06/23 05:17:09;;;;;;;;;;;23.30;67.30;;;;;;6251993;22;19918;-85
2023/06/23 05:19:37;;;;;;;;;;;23.40;67.20;;;;;;6252665;22;20222;-83
2023/06/23 05:22:08;;;;;;;;;;;23.40;67.10;;;;;;6252161;22;19911;-89
2023/06/23 05:24:54;;;;;;;;;;;23.40;67.00;;;;;;6253190;22;19957;-83
2023/06/23 05:27:23;;;;;;;;;;;23.50;67.20;;;;;;6252087;22;19950;-84
2023/06/23 05:29:51;;;;;;;;;;;23.60;67.00;;;;;;6252329;22;19917;-90
2023/06/23 05:32:18;;;;;;;;;;;23.70;66.90;;;;;;6279107;22;19921;-84
2023/06/23 05:34:48;;;;;;;;;;;23.70;66.90;;;;;;6252416;22;19967;-83
2023/06/23 05:37:16;;;;;;;;;;;23.90;67.00;;;;;;6252002;22;19964;-82
2023/06/23 05:39:44;;;;;;;;;;;24.00;66.60;;;;;;6252553;22;19912;-91
2023/06/23 05:42:10;;;;;;;;;;;24.20;66.40;;;;;;6252032;22;19950;-83
2023/06/23 05:44:36;;;;;;;;;;;24.30;66.40;;;;;;6252874;22;19931;-89
2023/06/23 05:47:06;;;;;;;;;;;24.40;66.30;;;;;;6253934;22;20320;-92
2023/06/23 05:49:37;;;;;;;;;;;24.50;66.20;;;;;;6254315;22;19915;-81
2023/06/23 05:52:05;;;;;;;;;;;24.60;66.10;;;;;;6252773;22;19911;-90
2023/06/23 05:54:34;;;;;;;;;;;24.70;65.80;;;;;;6285149;22;19912;-90
2023/06/23 05:57:04;;;;;;;;;;;24.90;65.50;;;;;;6255835;22;19915;-80
2023/06/23 05:59:36;;;;;;;;;;;25.00;65.30;;;;;;6256141;22;20054;-90
2023/06/23 06:02:04;;;;;;;;;;;25.20;64.90;;;;;;6252034;22;19941;-89
2023/06/23 06:04:33;;;;;;;;;;;25.30;65.00;;;;;;6258117;22;19957;-80
2023/06/23 06:06:59;;;;;;;;;;;25.40;64.80;;;;;;6252124;22;19934;-89
2023/06/23 06:09:28;;;;;;;;;;;25.50;64.30;;;;;;6255383;22;19961;-80
2023/06/23 06:11:54;;;;;;;;;;;25.80;63.70;;;;;;6251136;22;19911;-80
2023/06/23 06:14:20;;;;;;;;;;;25.90;63.40;;;;;;6251500;22;19918;-80
2023/06/23 06:16:47;;;;;;;;;;;26.10;63.60;;;;;;6277981;22;19911;-79
2023/06/23 06:19:14;;;;;;;;;;;26.20;63.40;;;;;;6251558;22;19957;-91
2023/06/23 06:21:41;;;;;;;;;;;26.40;63.30;;;;;;6227527;22;19911;-79
2023/06/23 06:24:10;;;;;;;;;;;26.50;62.90;;;;;;6278399;22;19911;-78
2023/06/23 06:26:36;;;;;;;;;;;26.60;62.80;;;;;;6251010;22;19911;-89
2023/06/23 06:29:05;;;;;;;;;;;26.80;62.80;;;;;;6225704;22;19937;-80
2023/06/23 06:31:34;;;;;;;;;;;26.90;62.60;;;;;;6251486;22;19915;-79
2023/06/23 06:34:01;;;;;;;;;;;26.90;62.50;;;;;;6248233;22;20391;-90
2023/06/23 06:36:29;;;;;;;;;;;27.10;62.90;;;;;;6242859;22;19986;-81
2023/06/23 06:38:56;;;;;;;;;;;27.10;62.70;;;;;;6242793;22;20335;-81
2023/06/23 06:41:22;;;;;;;;;;;27.30;62.50;;;;;;6242890;22;19950;-79
2023/06/23 06:43:49;;;;;;;;;;;27.30;62.30;;;;;;6243966;22;19935;-85
2023/06/23 06:46:16;;;;;;;;;;;27.40;62.10;;;;;;6242840;22;19915;-88
2023/06/23 06:48:46;;;;;;;;;;;27.50;62.00;;;;;;6243947;22;19926;-88
2023/06/23 06:51:14;;;;;;;;;;;27.60;61.30;;;;;;6243780;22;20279;-79
2023/06/23 06:53:40;;;;;;;;;;;27.80;60.70;;;;;;6242307;22;20314;-92
2023/06/23 06:56:06;;;;;;;;;;;27.90;59.70;;;;;;6217261;22;20350;-89
2023/06/23 06:58:32;;;;;;;;;;;28.10;59.90;;;;;;6242873;22;19926;-89
2023/06/23 07:00:58;;;;;;;;;;;28.30;59.10;;;;;;6217605;22;19915;-80
2023/06/23 07:03:24;;;;;;;;;;;28.40;58.50;;;;;;6242396;22;19911;-88
2023/06/23 07:05:50;;;;;;;;;;;28.40;58.40;;;;;;6242969;22;20226;-88
2023/06/23 07:08:16;;;;;;;;;;;28.60;58.20;;;;;;6243241;22;19958;-79
2023/06/23 07:10:42;;;;;;;;;;;28.70;57.90;;;;;;6241946;22;19918;-79
2023/06/23 07:13:08;;;;;;;;;;;29.00;57.90;;;;;;6270370;22;19911;-80
2023/06/23 07:15:34;;;;;;;;;;;29.20;57.30;;;;;;6217630;22;20376;-88
2023/06/23 07:18:00;;;;;;;;;;;29.30;56.80;;;;;;6242484;22;19957;-78
2023/06/23 07:20:26;;;;;;;;;;;29.40;56.70;;;;;;6269328;22;19947;-87
2023/06/23 07:22:52;;;;;;;;;;;29.40;56.80;;;;;;6217477;22;19915;-87
2023/06/23 07:25:18;;;;;;;;;;;29.40;56.70;;;;;;6242760;22;19911;-79
2023/06/23 07:27:47;;;;;;;;;;;29.50;56.60;;;;;;6243220;22;20243;-79
2023/06/23 07:32:58;;;;;;;;;;;29.30;54.30;;;;;;6246168;22;19937;-79
2023/06/23 07:35:24;;;;;;;;;;;29.40;54.90;;;;;;6242975;22;19914;-88
2023/06/23 07:37:50;;;;;;;;;;;29.50;55.00;;;;;;6270315;22;20241;-79
2023/06/23 07:40:16;;;;;;;;;;;29.60;54.50;;;;;;6217006;22;19907;-79
2023/06/23 07:42:41;;;;;;;;;;;29.80;53.80;;;;;;6217607;22;20400;-91
2023/06/23 07:45:08;;;;;;;;;;;30.00;53.90;;;;;;6217203;22;19952;-91
2023/06/23 07:47:34;;;;;;;;;;;30.10;52.40;;;;;;6240982;22;19923;-89
2023/06/23 07:50:00;;;;;;;;;;;30.00;51.90;;;;;;6242171;22;19982;-81
2023/06/23 07:52:26;;;;;;;;;;;30.20;52.10;;;;;;6216851;22;19969;-81
2023/06/23 07:54:52;;;;;;;;;;;30.40;51.80;;;;;;6270647;22;19922;-87
2023/06/23 07:57:19;;;;;;;;;;;30.50;51.40;;;;;;6241370;22;19985;-89
2023/06/23 07:59:45;;;;;;;;;;;30.60;51.00;;;;;;6242334;22;19919;-83
2023/06/23 08:02:11;;;;;;;;;;;30.80;50.60;;;;;;6242620;22;20499;-92
2023/06/23 08:04:37;;;;;;;;;;;30.90;49.80;;;;;;6243997;22;19919;-83
2023/06/23 08:07:03;;;;;;;;;;;31.00;49.80;;;;;;6242544;22;20349;-90
2023/06/23 08:09:29;;;;;;;;;;;31.20;48.80;;;;;;6219024;22;20252;-94
2023/06/23 08:11:55;;;;;;;;;;;31.30;48.80;;;;;;6248851;22;19907;-95
2023/06/23 08:14:21;;;;;;;;;;;31.50;48.00;;;;;;6246280;22;19954;-84
2023/06/23 08:16:48;;;;;;;;;;;31.70;47.50;;;;;;6244407;22;19914;-96
2023/06/23 08:19:14;;;;;;;;;;;31.80;46.90;;;;;;6247828;22;19938;-93
2023/06/23 08:21:42;;;;;;;;;;;31.90;44.90;;;;;;6244377;22;19911;-85
2023/06/23 08:24:08;;;;;;;;;;;32.20;44.80;;;;;;6246789;22;19998;-84
2023/06/23 08:26:34;;;;;;;;;;;32.50;44.40;;;;;;6241835;22;19907;-92
2023/06/23 08:29:00;;;;;;;;;;;32.80;43.40;;;;;;6272624;22;20285;-84
2023/06/23 08:31:26;;;;;;;;;;;33.00;43.20;;;;;;6219672;22;20309;-94
2023/06/23 08:33:52;;;;;;;;;;;33.20;42.90;;;;;;6244244;22;20248;-96
2023/06/23 08:36:18;;;;;;;;;;;33.30;42.10;;;;;;6244605;22;20292;-96
2023/06/23 08:38:44;;;;;;;;;;;33.30;41.60;;;;;;6248543;22;20005;-96
2023/06/23 08:41:10;;;;;;;;;;;33.30;41.20;;;;;;6249873;22;20481;-95
2023/06/23 08:43:44;;;;;;;;;;;33.30;41.50;;;;;;6247753;22;19922;-93
2023/06/23 08:46:13;;;;;;;;;;;33.40;41.40;;;;;;6248773;22;19913;-85
2023/06/23 08:49:00;;;;;;;;;;;33.50;38.50;;;;;;6221546;22;19916;-96
2023/06/23 08:51:26;;;;;;;;;;;33.50;39.10;;;;;;6276772;22;19915;-92
2023/06/23 08:53:51;;;;;;;;;;;33.70;37.10;;;;;;6219728;22;19915;-83
2023/06/23 08:56:18;;;;;;;;;;;33.80;37.70;;;;;;6246619;22;19918;-85
2023/06/23 08:58:44;;;;;;;;;;;34.00;37.90;;;;;;6251909;22;19946;-84
2023/06/23 09:01:09;;;;;;;;;;;34.40;38.30;;;;;;6246098;22;20344;-84
2023/06/23 09:03:35;;;;;;;;;;;34.60;37.70;;;;;;6219844;22;19914;-95
2023/06/23 09:06:02;;;;;;;;;;;34.60;37.60;;;;;;6220533;22;19919;-93
2023/06/23 09:08:27;;;;;;;;;;;34.60;36.70;;;;;;6246378;22;19921;-92
2023/06/23 09:10:53;;;;;;;;;;;34.60;37.20;;;;;;6245797;22;19915;-85
2023/06/23 09:13:40;;;;;;;;;;;34.60;36.50;;;;;;6246428;22;19911;-92
2023/06/23 09:16:06;;;;;;;;;;;34.90;36.60;;;;;;6245839;22;19911;-91
2023/06/23 09:18:35;;;;;;;;;;;35.00;36.70;;;;;;6248049;22;19922;-91
2023/06/23 09:21:02;;;;;;;;;;;35.00;36.60;;;;;;6249179;22;19982;-84
2023/06/23 09:23:31;;;;;;;;;;;35.30;36.20;;;;;;6253852;22;19965;-93
2023/06/23 09:25:57;;;;;;;;;;;35.50;36.70;;;;;;6251837;22;19948;-92
2023/06/23 09:28:24;;;;;;;;;;;35.70;36.10;;;;;;6249069;22;19922;-90
2023/06/23 09:30:51;;;;;;;;;;;35.90;34.80;;;;;;6245790;22;19911;-85
2023/06/23 09:33:18;;;;;;;;;;;36.10;35.40;;;;;;6249138;22;19915;-84
2023/06/23 09:35:55;;;;;;;;;;;36.50;35.60;;;;;;6247601;22;20316;-90
2023/06/23 09:38:23;;;;;;;;;;;36.70;33.60;;;;;;6248701;22;19946;-91
2023/06/23 09:41:02;;;;;;;;;;;36.70;30.10;;;;;;6248233;22;20158;-95
2023/06/23 09:43:28;;;;;;;;;;;36.50;30.00;;;;;;6250003;22;20040;-92
2023/06/23 09:45:54;;;;;;;;;;;36.60;30.50;;;;;;6221273;22;19921;-87
2023/06/23 09:48:23;;;;;;;;;;;36.60;31.80;;;;;;6221690;22;19986;-88
2023/06/23 09:51:00;;;;;;;;;;;36.60;30.30;;;;;;6245795;22;19934;-88
2023/06/23 09:53:26;;;;;;;;;;;36.90;30.40;;;;;;6246395;22;20489;-90
2023/06/23 09:55:51;;;;;;;;;;;37.10;31.00;;;;;;6246468;22;19915;-86
2023/06/23 09:58:18;;;;;;;;;;;36.90;29.00;;;;;;6246771;22;20056;-91
2023/06/23 10:00:44;;;;;;;;;;;37.00;30.90;;;;;;6245135;22;19950;-91
2023/06/23 10:03:10;;;;;;;;;;;37.30;30.50;;;;;;6245641;22;20317;-86
2023/06/23 10:05:36;;;;;;;;;;;37.90;29.40;;;;;;6243746;22;19914;-86
2023/06/23 10:08:22;;;;;;;;;;;38.80;29.00;;;;;;6245667;22;19976;-89
2023/06/23 10:10:48;;;;;;;;;;;39.60;28.10;;;;;;6243108;22;20019;-92
2023/06/23 10:13:14;;;;;;;;;;;40.50;27.00;;;;;;6243955;22;19915;-89
2023/06/23 10:15:59;;;;;;;;;;;41.10;26.60;;;;;;6243152;22;19946;-88
2023/06/23 10:18:25;;;;;;;;;;;41.70;24.90;;;;;;6243418;22;20280;-89
2023/06/23 10:20:53;;;;;;;;;;;42.10;26.30;;;;;;6242980;22;19915;-87
2023/06/23 10:23:20;;;;;;;;;;;42.30;23.50;;;;;;6243147;22;19922;-81
2023/06/23 10:25:47;;;;;;;;;;;42.90;24.50;;;;;;6242700;22;19915;-84
2023/06/23 10:28:15;;;;;;;;;;;43.30;24.30;;;;;;6243581;22;19931;-81
2023/06/23 10:30:42;;;;;;;;;;;43.90;23.70;;;;;;6242293;22;19973;-86
2023/06/23 10:33:14;;;;;;;;;;;44.10;22.80;;;;;;6243322;22;19911;-86
2023/06/23 10:35:40;;;;;;;;;;;44.30;22.70;;;;;;6242974;22;19987;-87
2023/06/23 10:38:08;;;;;;;;;;;44.80;21.40;;;;;;6243115;22;19915;-86
2023/06/23 10:40:54;;;;;;;;;;;45.40;22.40;;;;;;6242743;22;19957;-83
2023/06/23 10:43:21;;;;;;;;;;;44.80;21.90;;;;;;6242839;22;19922;-82
2023/06/23 10:45:50;;;;;;;;;;;44.20;22.50;;;;;;6242740;22;19921;-82
2023/06/23 10:48:16;;;;;;;;;;;44.30;22.20;;;;;;6242343;22;20128;-83
2023/06/23 10:50:42;;;;;;;;;;;44.70;21.90;;;;;;6216831;22;20431;-83
2023/06/23 10:53:30;;;;;;;;;;;45.50;21.20;;;;;;6269747;22;19954;-88
2023/06/23 10:55:56;;;;;;;;;;;45.80;20.30;;;;;;6217132;22;20416;-82
2023/06/23 10:58:23;;;;;;;;;;;45.70;19.90;;;;;;6217120;22;20320;-84
2023/06/23 11:01:09;;;;;;;;;;;46.50;18.70;;;;;;6242035;22;19911;-84
2023/06/23 11:03:36;;;;;;;;;;;47.00;19.00;;;;;;6243694;22;19916;-81
2023/06/23 11:06:39;;;;;;;;;;;47.70;18.60;;;;;;6241679;22;19911;-80
2023/06/23 11:09:58;;;;;;;;;;;47.80;18.10;;;;;;6242262;22;19950;-82
2023/06/23 11:12:43;;;;;;;;;;;48.20;17.90;;;;;;6241720;22;19994;-81
2023/06/23 11:15:28;;;;;;;;;;;48.80;17.70;;;;;;6241519;22;19938;-81
2023/06/23 11:18:14;;;;;;;;;;;49.40;17.80;;;;;;6242157;22;19937;-81
2023/06/23 11:20:41;;;;;;;;;;;49.70;16.40;;;;;;6216767;22;19912;-81
2023/06/23 11:23:27;;;;;;;;;;;50.20;16.20;;;;;;6241795;22;20056;-83
2023/06/23 11:25:53;;;;;;;;;;;50.60;16.30;;;;;;6241767;22;19982;-82
2023/06/23 11:28:38;;;;;;;;;;;50.70;15.80;;;;;;6269029;22;20362;-81
2023/06/23 11:31:29;;;;;;;;;;;51.10;15.70;;;;;;6241689;22;20311;-82
2023/06/23 11:33:55;;;;;;;;;;;50.90;15.30;;;;;;6243161;22;20282;-82
2023/06/23 11:36:24;;;;;;;;;;;51.10;15.70;;;;;;6268580;22;20466;-82
2023/06/23 11:38:50;;;;;;;;;;;50.80;15.60;;;;;;6242020;22;19990;-81
2023/06/23 11:41:35;;;;;;;;;;;50.80;15.50;;;;;;6269467;22;20400;-83
2023/06/23 11:44:03;;;;;;;;;;;51.00;15.70;;;;;;6241963;22;19911;-82
2023/06/23 11:46:50;;;;;;;;;;;51.30;15.70;;;;;;6241243;22;19911;-81
2023/06/23 11:49:16;;;;;;;;;;;51.50;15.50;;;;;;6241546;22;19938;-83
2023/06/23 11:51:42;;;;;;;;;;;51.80;15.50;;;;;;6268760;22;19911;-81
2023/06/23 11:54:08;;;;;;;;;;;52.10;15.30;;;;;;6216476;22;19915;-83
2023/06/23 11:56:34;;;;;;;;;;;52.30;15.00;;;;;;6241904;22;19950;-82
2023/06/23 11:59:02;;;;;;;;;;;52.40;15.60;;;;;;6241633;22;19911;-83
2023/06/23 12:01:28;;;;;;;;;;;52.80;14.60;;;;;;6216344;22;19911;-82
2023/06/23 12:03:54;;;;;;;;;;;53.00;14.00;;;;;;6241591;22;19976;-83
2023/06/23 12:06:22;;;;;;;;;;;53.20;14.40;;;;;;6215762;22;19994;-83
2023/06/23 12:08:49;;;;;;;;;;;53.20;14.50;;;;;;6242252;22;20321;-81
2023/06/23 12:11:39;;;;;;;;;;;53.50;14.00;;;;;;6241469;22;20286;-83
2023/06/23 12:14:05;;;;;;;;;;;53.70;14.00;;;;;;6216913;22;19915;-81
2023/06/23 12:16:51;;;;;;;;;;;53.80;13.20;;;;;;6216261;22;19922;-82
2023/06/23 12:19:21;;;;;;;;;;;54.00;13.40;;;;;;6269862;22;19918;-81
2023/06/23 12:21:48;;;;;;;;;;;54.20;13.50;;;;;;6241831;22;19911;-84
2023/06/23 12:24:14;;;;;;;;;;;54.30;13.30;;;;;;6268934;22;19915;-80
2023/06/23 12:26:41;;;;;;;;;;;54.20;13.50;;;;;;6215241;22;19911;-82
2023/06/23 12:29:08;;;;;;;;;;;53.90;13.30;;;;;;6241224;22;19911;-82
2023/06/23 12:31:35;;;;;;;;;;;53.70;13.20;;;;;;6240839;22;19957;-80
2023/06/23 12:34:01;;;;;;;;;;;53.70;13.40;;;;;;6241625;22;19998;-84
2023/06/23 12:36:27;;;;;;;;;;;53.70;13.10;;;;;;6215209;22;20214;-82
2023/06/23 12:38:55;;;;;;;;;;;53.80;12.70;;;;;;6215377;22;19911;-81
2023/06/23 12:44:06;;;;;;;;;;;53.70;11.80;;;;;;6245204;22;19922;-83
2023/06/23 12:46:33;;;;;;;;;;;53.30;12.80;;;;;;6240884;22;19914;-83
2023/06/23 12:49:00;;;;;;;;;;;53.30;12.40;;;;;;6217497;23;20340;-81
2023/06/23 12:51:46;;;;;;;;;;;53.20;13.00;;;;;;6210624;23;19911;-81
2023/06/23 12:54:14;;;;;;;;;;;52.90;13.00;;;;;;6238299;23;20325;-80
2023/06/23 12:56:40;;;;;;;;;;;52.00;13.60;;;;;;6235555;23;19908;-80
2023/06/23 12:59:06;;;;;;;;;;;51.20;13.90;;;;;;6210619;23;20389;-81
2023/06/23 13:01:32;;;;;;;;;;;50.10;14.20;;;;;;6237690;23;19916;-82
2023/06/23 13:03:58;;;;;;;;;;;48.80;14.80;;;;;;6210155;23;20248;-80
2023/06/23 13:06:24;;;;;;;;;;;47.50;16.10;;;;;;6210442;23;19987;-81
2023/06/23 13:08:52;;;;;;;;;;;46.50;16.80;;;;;;6211616;23;19969;-83
2023/06/23 13:11:18;;;;;;;;;;;45.50;16.90;;;;;;6237392;23;19907;-82
2023/06/23 13:13:44;;;;;;;;;;;45.00;17.70;;;;;;6235390;23;19915;-80
2023/06/23 13:16:10;;;;;;;;;;;44.50;18.40;;;;;;6236298;22;19911;-80
2023/06/23 13:18:38;;;;;;;;;;;44.30;18.50;;;;;;6236063;23;20146;-80
2023/06/23 13:21:04;;;;;;;;;;;44.00;19.00;;;;;;6235647;23;19911;-80
2023/06/23 13:23:32;;;;;;;;;;;43.90;19.10;;;;;;6210266;23;19919;-80
2023/06/23 13:25:58;;;;;;;;;;;43.60;19.70;;;;;;6236415;22;20308;-82
2023/06/23 13:28:24;;;;;;;;;;;43.20;20.30;;;;;;6210676;23;19923;-82
2023/06/23 13:30:49;;;;;;;;;;;42.70;20.10;;;;;;6235231;23;19994;-79
2023/06/23 13:33:17;;;;;;;;;;;42.60;20.70;;;;;;6210416;23;19990;-81
2023/06/23 13:35:43;;;;;;;;;;;42.40;21.00;;;;;;6210225;23;19961;-86
2023/06/23 13:38:09;;;;;;;;;;;42.20;21.00;;;;;;6212591;23;19919;-82
2023/06/23 13:40:35;;;;;;;;;;;41.90;21.60;;;;;;6212472;23;20229;-82
2023/06/23 13:43:01;;;;;;;;;;;41.70;22.40;;;;;;6213102;23;19919;-82
2023/06/23 13:45:27;;;;;;;;;;;41.60;21.90;;;;;;6239497;22;19930;-85
2023/06/23 13:47:54;;;;;;;;;;;41.50;22.00;;;;;;6213325;23;19919;-84
2023/06/23 13:50:20;;;;;;;;;;;41.60;21.80;;;;;;6218443;22;19965;-86
2023/06/23 13:52:46;;;;;;;;;;;41.50;22.00;;;;;;6217779;22;20260;-82
2023/06/23 13:55:13;;;;;;;;;;;41.20;21.90;;;;;;6243813;22;20416;-81
2023/06/23 13:57:39;;;;;;;;;;;40.90;21.90;;;;;;6243189;22;19915;-81
2023/06/23 14:00:10;;;;;;;;;;;40.90;22.10;;;;;;6242910;22;19911;-83
2023/06/23 14:02:36;;;;;;;;;;;40.90;21.70;;;;;;6244830;22;20295;-83
2023/06/23 14:05:03;;;;;;;;;;;40.80;21.70;;;;;;6243306;22;19915;-83
2023/06/23 14:07:29;;;;;;;;;;;40.80;21.80;;;;;;6243606;22;20165;-82
2023/06/23 14:10:03;;;;;;;;;;;40.80;21.60;;;;;;6218689;22;19982;-82
2023/06/23 14:12:29;;;;;;;;;;;41.00;22.40;;;;;;6243362;22;19948;-82
2023/06/23 14:14:55;;;;;;;;;;;40.90;22.20;;;;;;6243585;22;20234;-85
2023/06/23 14:17:24;;;;;;;;;;;41.00;22.30;;;;;;6243171;22;19921;-87
2023/06/23 14:19:50;;;;;;;;;;;41.00;22.20;;;;;;6243700;22;19915;-91
2023/06/23 14:22:16;;;;;;;;;;;41.00;22.80;;;;;;6244237;22;20015;-87
2023/06/23 14:24:42;;;;;;;;;;;41.00;22.80;;;;;;6219181;22;20435;-88
2023/06/23 14:27:08;;;;;;;;;;;40.90;22.50;;;;;;6243402;22;20309;-86
2023/06/23 14:29:34;;;;;;;;;;;40.80;23.10;;;;;;6244117;22;19915;-85
2023/06/23 14:32:00;;;;;;;;;;;40.70;23.40;;;;;;6217213;22;19917;-83
2023/06/23 14:34:32;;;;;;;;;;;40.70;23.40;;;;;;6245222;22;19919;-82
2023/06/23 14:36:58;;;;;;;;;;;40.60;23.60;;;;;;6242543;22;19945;-84
2023/06/23 14:39:24;;;;;;;;;;;40.50;23.60;;;;;;6217710;22;19946;-82
2023/06/23 14:41:50;;;;;;;;;;;40.50;24.10;;;;;;6243326;22;19985;-84